Terminal Aerodrome Forecast
Issued by NWS Paducah, KY

Current Version | Previous Version | Text Only | Print | Product List | Glossary On
Versions: 1 2 3 4 5 6 7 8 9 10 11 12 13
000
FTUS43 KPAH 302300
TAFEVV
TAF
KEVV 302320Z 0100/0124 VRB04KT P6SM SKC
     FM011600 16004KT P6SM SKC=

USA.gov is the U.S. government's official web portal to all federal, state and local government web resources and services.